createdAt,value
2019-03-01T00:00:44.931Z,0.00
2019-03-01T00:01:44.798Z,0.00
2019-03-01T00:02:44.671Z,0.00
2019-03-01T00:03:44.535Z,0.00
2019-03-01T00:04:44.412Z,0.00
2019-03-01T00:05:44.275Z,0.00
2019-03-01T00:06:44.148Z,0.00
2019-03-01T00:07:44.018Z,0.00
2019-03-01T00:08:43.886Z,0.00
2019-03-01T00:09:43.755Z,0.00
2019-03-01T00:10:43.621Z,0.00
2019-03-01T00:11:43.492Z,0.00
2019-03-01T00:12:43.366Z,0.00
2019-03-01T00:13:43.230Z,0.00
2019-03-01T00:14:43.102Z,0.00
2019-03-01T00:15:42.968Z,0.00
2019-03-01T00:16:42.840Z,0.00
2019-03-01T00:17:42.706Z,0.00
2019-03-01T00:18:42.575Z,0.00
2019-03-01T00:19:42.443Z,0.00
2019-03-01T00:20:42.311Z,0.00
2019-03-01T00:21:42.194Z,0.00
2019-03-01T00:22:42.999Z,0.00
2019-03-01T00:23:41.920Z,0.00
2019-03-01T00:24:41.809Z,0.00
2019-03-01T00:25:41.658Z,0.00
2019-03-01T00:26:41.528Z,0.00
2019-03-01T00:27:41.397Z,0.00
2019-03-01T00:28:41.264Z,0.00
2019-03-01T00:29:41.136Z,0.00
2019-03-01T00:30:41.003Z,0.00
2019-03-01T00:31:40.870Z,0.00
2019-03-01T00:32:40.742Z,0.00
2019-03-01T00:33:40.610Z,0.00
2019-03-01T00:34:40.479Z,0.00
2019-03-01T00:35:40.347Z,0.00
2019-03-01T00:36:40.215Z,0.00
2019-03-01T00:37:40.085Z,0.00
2019-03-01T00:38:39.955Z,0.00
2019-03-01T00:39:39.824Z,0.00
2019-03-01T00:40:39.694Z,0.00
2019-03-01T00:41:39.562Z,0.00
2019-03-01T00:42:39.430Z,0.00
2019-03-01T00:43:39.303Z,0.00
2019-03-01T00:44:39.170Z,0.00
2019-03-01T00:45:39.041Z,0.00
2019-03-01T00:46:40.670Z,0.00
2019-03-01T00:47:38.781Z,0.00
2019-03-01T00:48:38.652Z,0.00
2019-03-01T00:49:38.520Z,0.00
2019-03-01T00:50:38.389Z,0.00
2019-03-01T00:51:39.002Z,0.00
2019-03-01T00:52:38.126Z,0.00
2019-03-01T00:53:37.994Z,0.00
2019-03-01T00:54:37.876Z,0.00
2019-03-01T00:55:37.735Z,0.00
2019-03-01T00:56:37.603Z,0.00
2019-03-01T00:57:37.474Z,0.00
2019-03-01T00:58:37.341Z,0.00
2019-03-01T00:59:37.212Z,0.00
2019-03-01T01:00:37.082Z,0.00
2019-03-01T01:01:36.952Z,0.00
2019-03-01T01:02:36.822Z,0.00
2019-03-01T01:03:36.691Z,0.00
2019-03-01T01:04:36.560Z,0.00
2019-03-01T01:05:36.431Z,0.00
2019-03-01T01:06:36.301Z,0.00
2019-03-01T01:07:36.169Z,0.00
2019-03-01T01:08:36.050Z,0.00
2019-03-01T01:09:35.907Z,0.00
2019-03-01T01:10:35.782Z,0.00
2019-03-01T01:11:35.648Z,0.00
2019-03-01T01:12:35.517Z,0.00
2019-03-01T01:13:35.387Z,0.00
2019-03-01T01:14:35.257Z,0.00
2019-03-01T01:15:35.125Z,0.00
2019-03-01T01:16:34.995Z,0.00
2019-03-01T01:17:34.863Z,0.00
2019-03-01T01:18:34.736Z,0.00
2019-03-01T01:19:34.599Z,0.00
2019-03-01T01:20:34.996Z,0.00
2019-03-01T01:21:34.342Z,0.00
2019-03-01T01:22:34.220Z,0.00
2019-03-01T01:23:34.077Z,0.00
2019-03-01T01:24:33.946Z,0.00
2019-03-01T01:25:33.819Z,0.00
2019-03-01T01:26:33.688Z,0.00
2019-03-01T01:27:33.553Z,0.00
2019-03-01T01:28:33.463Z,0.00
2019-03-01T01:29:33.296Z,0.00
2019-03-01T01:30:33.167Z,0.00
2019-03-01T01:31:33.032Z,0.00
2019-03-01T01:32:32.903Z,0.00
2019-03-01T01:33:32.775Z,0.00
2019-03-01T01:34:32.641Z,0.00
2019-03-01T01:35:32.510Z,0.00
2019-03-01T01:36:32.378Z,0.00
2019-03-01T01:37:32.250Z,0.00
2019-03-01T01:38:32.117Z,0.00
2019-03-01T01:39:31.987Z,0.00
2019-03-01T01:40:31.856Z,0.00
2019-03-01T01:41:31.725Z,0.00
2019-03-01T01:42:31.595Z,0.00
2019-03-01T01:43:31.468Z,0.00
2019-03-01T01:44:31.338Z,0.00
2019-03-01T01:45:31.207Z,0.00
2019-03-01T01:46:31.073Z,0.00
2019-03-01T01:47:30.946Z,0.00
2019-03-01T01:48:30.814Z,0.00
2019-03-01T01:49:31.010Z,0.00
2019-03-01T01:50:30.554Z,0.00
2019-03-01T01:51:30.419Z,0.00
2019-03-01T01:52:30.289Z,0.00
2019-03-01T01:53:30.164Z,0.00
2019-03-01T01:54:30.033Z,0.00
2019-03-01T01:55:29.897Z,0.00
2019-03-01T01:56:29.768Z,0.00
2019-03-01T01:57:29.638Z,0.00
2019-03-01T01:58:29.508Z,0.00
2019-03-01T01:59:29.376Z,0.00
2019-03-01T02:00:29.246Z,0.00
2019-03-01T02:01:29.118Z,0.00
2019-03-01T02:02:28.983Z,0.00
2019-03-01T02:03:28.854Z,0.00
2019-03-01T02:04:28.720Z,0.00
2019-03-01T02:05:28.593Z,0.00
2019-03-01T02:06:28.462Z,0.00
2019-03-01T02:07:28.330Z,0.00
2019-03-01T02:08:28.197Z,0.00
2019-03-01T02:09:28.067Z,0.00
2019-03-01T02:10:27.937Z,0.00
2019-03-01T02:11:27.809Z,0.00
2019-03-01T02:12:27.679Z,0.00
2019-03-01T02:13:27.545Z,0.00
2019-03-01T02:14:27.416Z,0.00
2019-03-01T02:15:27.284Z,0.00
2019-03-01T02:16:27.154Z,0.00
2019-03-01T02:17:27.027Z,0.00
2019-03-01T02:18:27.013Z,0.00
2019-03-01T02:19:26.761Z,0.00
2019-03-01T02:20:26.635Z,0.00
2019-03-01T02:21:26.504Z,0.00
2019-03-01T02:22:26.371Z,0.00
2019-03-01T02:23:26.243Z,0.00
2019-03-01T02:24:26.108Z,0.00
2019-03-01T02:25:25.981Z,0.00
2019-03-01T02:26:25.848Z,0.00
2019-03-01T02:27:25.716Z,0.00
2019-03-01T02:28:25.587Z,0.00
2019-03-01T02:29:25.458Z,0.00
2019-03-01T02:30:25.333Z,0.00
2019-03-01T02:31:25.197Z,0.00
2019-03-01T02:32:25.066Z,0.00
2019-03-01T02:33:24.939Z,0.00
2019-03-01T02:34:24.805Z,0.00
2019-03-01T02:35:24.674Z,0.00
2019-03-01T02:36:24.547Z,0.00
2019-03-01T02:37:24.416Z,0.00
2019-03-01T02:38:24.283Z,0.00
2019-03-01T02:39:24.152Z,0.00
2019-03-01T02:40:24.023Z,0.00
2019-03-01T02:41:23.903Z,0.00
2019-03-01T02:42:23.761Z,0.00
2019-03-01T02:43:23.631Z,0.00
2019-03-01T02:44:23.500Z,0.00
2019-03-01T02:45:23.371Z,0.00
2019-03-01T02:46:23.242Z,0.00
2019-03-01T02:47:23.109Z,0.00
2019-03-01T02:48:22.977Z,0.00
2019-03-01T02:49:22.850Z,0.00
2019-03-01T02:50:22.719Z,0.00
2019-03-01T02:51:22.588Z,0.00
2019-03-01T02:52:22.527Z,0.00
2019-03-01T02:53:22.330Z,0.00
2019-03-01T02:54:22.198Z,0.00
2019-03-01T02:55:22.064Z,0.00
2019-03-01T02:56:21.933Z,0.00
2019-03-01T02:57:21.811Z,0.00
2019-03-01T02:58:21.671Z,0.00
2019-03-01T02:59:21.543Z,0.00
2019-03-01T03:00:21.412Z,0.00
2019-03-01T03:01:21.281Z,0.00
2019-03-01T03:02:21.147Z,0.00
2019-03-01T03:03:21.019Z,0.00
2019-03-01T03:04:20.887Z,0.00
2019-03-01T03:05:20.775Z,0.00
2019-03-01T03:06:20.624Z,0.00
2019-03-01T03:07:20.497Z,0.00
2019-03-01T03:08:20.363Z,0.00
2019-03-01T03:09:20.253Z,0.00
2019-03-01T03:10:20.111Z,0.00
2019-03-01T03:11:19.999Z,0.00
2019-03-01T03:12:19.843Z,0.00
2019-03-01T03:13:19.709Z,0.00
2019-03-01T03:14:19.579Z,0.00
2019-03-01T03:15:19.447Z,0.00
2019-03-01T03:16:19.317Z,0.00
2019-03-01T03:17:19.186Z,0.00
2019-03-01T03:18:19.057Z,0.00
2019-03-01T03:19:18.923Z,0.00
2019-03-01T03:20:18.794Z,0.00
2019-03-01T03:21:18.662Z,0.00
2019-03-01T03:22:18.535Z,0.00
2019-03-01T03:23:18.403Z,0.00
2019-03-01T03:24:18.271Z,0.00
2019-03-01T03:25:18.140Z,0.00
2019-03-01T03:26:18.006Z,0.00
2019-03-01T03:27:17.879Z,0.00
2019-03-01T03:28:17.745Z,0.00
2019-03-01T03:29:17.614Z,0.00
2019-03-01T03:30:19.200Z,0.00
2019-03-01T03:31:17.352Z,0.00
2019-03-01T03:32:17.221Z,0.00
2019-03-01T03:33:17.092Z,0.00
2019-03-01T03:34:16.959Z,0.00
2019-03-01T03:35:16.825Z,0.00
2019-03-01T03:36:16.696Z,0.00
2019-03-01T03:37:16.568Z,0.00
2019-03-01T03:38:16.435Z,0.00
2019-03-01T03:39:16.305Z,0.00
2019-03-01T03:40:16.176Z,0.00
2019-03-01T03:41:16.046Z,0.00
2019-03-01T03:42:15.910Z,0.00
2019-03-01T03:43:15.779Z,0.00
2019-03-01T03:44:15.646Z,0.00
2019-03-01T03:45:15.516Z,0.00
2019-03-01T03:46:15.389Z,0.00
2019-03-01T03:47:15.254Z,0.00
2019-03-01T03:48:15.126Z,0.00
2019-03-01T03:49:15.008Z,0.00
2019-03-01T03:50:14.870Z,0.00
2019-03-01T03:51:14.732Z,0.00
2019-03-01T03:52:14.601Z,0.00
2019-03-01T03:53:14.467Z,0.00
2019-03-01T03:54:14.337Z,0.00
2019-03-01T03:55:14.213Z,0.00
2019-03-01T03:56:14.080Z,0.00
2019-03-01T03:57:13.948Z,0.00
2019-03-01T03:58:13.823Z,0.00
2019-03-01T03:59:13.688Z,0.00
2019-03-01T04:00:13.552Z,0.00
2019-03-01T04:01:13.433Z,0.00
2019-03-01T04:02:13.290Z,0.00
2019-03-01T04:03:13.161Z,0.00
2019-03-01T04:04:13.038Z,0.00
2019-03-01T04:05:12.898Z,0.00
2019-03-01T04:06:12.766Z,0.00
2019-03-01T04:07:12.638Z,0.00
2019-03-01T04:08:12.507Z,0.00
2019-03-01T04:09:12.372Z,0.00
2019-03-01T04:10:12.247Z,0.00
2019-03-01T04:11:12.112Z,0.00
2019-03-01T04:12:11.986Z,0.00
2019-03-01T04:13:11.850Z,0.00
2019-03-01T04:14:11.727Z,0.00
2019-03-01T04:15:11.587Z,0.00
2019-03-01T04:16:11.456Z,0.00
2019-03-01T04:17:11.354Z,0.00
2019-03-01T04:18:11.196Z,0.00
2019-03-01T04:19:11.062Z,0.00
2019-03-01T04:20:10.935Z,0.00
2019-03-01T04:21:10.808Z,0.00
2019-03-01T04:22:10.672Z,0.00
2019-03-01T04:23:10.537Z,0.00
2019-03-01T04:24:10.413Z,0.00
2019-03-01T04:25:10.281Z,0.00
2019-03-01T04:26:10.147Z,0.00
2019-03-01T04:27:10.016Z,0.00
2019-03-01T04:28:09.885Z,0.00
2019-03-01T04:29:09.759Z,0.00
2019-03-01T04:30:09.622Z,0.00
2019-03-01T04:31:09.490Z,0.00
2019-03-01T04:32:09.360Z,0.00
2019-03-01T04:33:09.233Z,0.00
2019-03-01T04:34:09.102Z,0.00
2019-03-01T04:35:08.966Z,0.00
2019-03-01T04:36:08.835Z,0.00
2019-03-01T04:37:08.705Z,0.00
2019-03-01T04:38:08.577Z,0.00
2019-03-01T04:39:08.443Z,0.00
2019-03-01T04:40:08.318Z,0.00
2019-03-01T04:41:08.182Z,0.00
2019-03-01T04:42:08.051Z,0.00
2019-03-01T04:43:07.925Z,0.00
2019-03-01T04:44:07.791Z,0.00
2019-03-01T04:45:07.658Z,0.00
2019-03-01T04:46:07.530Z,0.00
2019-03-01T04:47:07.399Z,0.00
2019-03-01T04:48:07.266Z,0.00
2019-03-01T04:49:07.136Z,0.00
2019-03-01T04:50:07.004Z,0.00
2019-03-01T04:51:06.873Z,0.00
2019-03-01T04:52:06.741Z,0.00
2019-03-01T04:53:06.613Z,0.00
2019-03-01T04:54:06.483Z,0.00
2019-03-01T04:55:06.348Z,0.00
2019-03-01T04:56:06.224Z,0.00
2019-03-01T04:57:06.085Z,0.00
2019-03-01T04:58:05.960Z,0.00
2019-03-01T04:59:05.827Z,0.00
2019-03-01T05:00:05.691Z,0.00
2019-03-01T05:01:05.562Z,0.00
2019-03-01T05:02:05.431Z,0.00
2019-03-01T05:03:05.301Z,0.00
2019-03-01T05:04:05.167Z,0.00
2019-03-01T05:05:05.036Z,0.00
2019-03-01T05:06:04.904Z,0.00
2019-03-01T05:07:04.772Z,0.00
2019-03-01T05:08:04.640Z,0.00
2019-03-01T05:09:04.509Z,0.00
2019-03-01T05:10:04.383Z,0.00
2019-03-01T05:11:04.246Z,0.00
2019-03-01T05:12:04.115Z,0.00
2019-03-01T05:13:03.982Z,0.00
2019-03-01T05:14:03.854Z,0.00
2019-03-01T05:15:03.722Z,0.00
2019-03-01T05:16:03.585Z,0.00
2019-03-01T05:17:03.456Z,0.00
2019-03-01T05:18:03.330Z,0.00
2019-03-01T05:19:03.194Z,0.00
2019-03-01T05:20:03.060Z,0.00
2019-03-01T05:21:02.927Z,0.00
2019-03-01T05:22:02.807Z,0.00
2019-03-01T05:23:02.664Z,0.00
2019-03-01T05:24:02.535Z,0.00
2019-03-01T05:25:02.402Z,0.00
2019-03-01T05:26:02.273Z,0.00
2019-03-01T05:27:02.144Z,0.00
2019-03-01T05:28:02.011Z,0.00
2019-03-01T05:29:01.876Z,0.00
2019-03-01T05:30:01.747Z,0.00
2019-03-01T05:31:01.613Z,0.00
2019-03-01T05:32:01.484Z,0.00
2019-03-01T05:33:01.408Z,0.00
2019-03-01T05:34:01.221Z,0.00
2019-03-01T05:35:01.099Z,0.00
2019-03-01T05:36:00.957Z,0.00
2019-03-01T05:37:00.827Z,0.00
2019-03-01T05:38:00.695Z,0.00
2019-03-01T05:39:00.584Z,4.00
2019-03-01T05:40:00.463Z,4.00
2019-03-01T05:41:00.302Z,0.00
2019-03-01T05:42:01.091Z,4.00
2019-03-01T05:43:00.035Z,4.00
2019-03-01T05:43:59.907Z,4.00
2019-03-01T05:45:00.518Z,4.00
2019-03-01T05:45:59.647Z,4.00
2019-03-01T05:46:59.511Z,8.00
2019-03-01T05:47:59.381Z,8.00
2019-03-01T05:48:59.245Z,12.00
2019-03-01T05:49:59.114Z,12.00
2019-03-01T05:50:58.984Z,16.00
2019-03-01T05:51:58.853Z,16.00
2019-03-01T05:52:58.721Z,16.00
2019-03-01T05:53:58.589Z,24.00
2019-03-01T05:54:58.462Z,24.00
2019-03-01T05:55:58.324Z,28.00
2019-03-01T05:56:58.194Z,32.00
2019-03-01T05:57:58.065Z,36.00
2019-03-01T05:58:57.931Z,36.00
2019-03-01T05:59:57.797Z,40.00
2019-03-01T06:00:57.665Z,52.00
2019-03-01T06:01:57.533Z,60.00
2019-03-01T06:02:57.409Z,68.00
2019-03-01T06:03:57.272Z,76.00
2019-03-01T06:04:57.138Z,80.00
2019-03-01T06:05:57.011Z,84.00
2019-03-01T06:06:56.875Z,92.00
2019-03-01T06:07:56.744Z,96.00
2019-03-01T06:08:56.612Z,108.00
2019-03-01T06:09:56.481Z,120.00
2019-03-01T06:10:57.097Z,124.00
2019-03-01T06:11:56.220Z,144.00
2019-03-01T06:12:57.731Z,160.00
2019-03-01T06:13:55.958Z,176.00
2019-03-01T06:14:55.823Z,184.00
2019-03-01T06:15:55.689Z,188.00
2019-03-01T06:16:55.560Z,200.00
2019-03-01T06:17:55.428Z,208.00
2019-03-01T06:18:55.299Z,232.00
2019-03-01T06:19:55.167Z,240.00
2019-03-01T06:20:55.033Z,256.00
2019-03-01T06:21:54.903Z,280.00
2019-03-01T06:22:54.770Z,292.00
2019-03-01T06:23:54.646Z,296.00
2019-03-01T06:24:54.507Z,308.00
2019-03-01T06:25:54.380Z,328.00
2019-03-01T06:26:54.245Z,340.00
2019-03-01T06:27:54.142Z,380.00
2019-03-01T06:28:53.983Z,376.00
2019-03-01T06:29:53.861Z,396.00
2019-03-01T06:30:53.721Z,416.00
2019-03-01T06:31:53.589Z,464.00
2019-03-01T06:32:53.456Z,476.00
2019-03-01T06:33:53.331Z,416.00
2019-03-01T06:34:53.194Z,428.00
2019-03-01T06:35:53.061Z,396.00
2019-03-01T06:36:52.933Z,436.00
2019-03-01T06:37:52.803Z,476.00
2019-03-01T06:38:52.667Z,508.00
2019-03-01T06:39:53.098Z,536.00
2019-03-01T06:40:52.408Z,480.00
2019-03-01T06:41:52.274Z,504.00
2019-03-01T06:42:52.184Z,532.00
2019-03-01T06:43:52.011Z,568.00
2019-03-01T06:44:51.878Z,680.00
2019-03-01T06:45:51.750Z,804.00
2019-03-01T06:46:51.616Z,728.00
2019-03-01T06:47:51.486Z,612.00
2019-03-01T06:48:51.358Z,696.00
2019-03-01T06:49:51.224Z,920.00
2019-03-01T06:50:51.092Z,984.00
2019-03-01T06:51:50.962Z,808.00
2019-03-01T06:52:50.832Z,776.00
2019-03-01T06:53:50.696Z,824.00
2019-03-01T06:54:50.569Z,832.00
2019-03-01T06:55:50.435Z,792.00
2019-03-01T06:56:50.306Z,812.00
2019-03-01T06:57:50.172Z,920.00
2019-03-01T06:58:50.044Z,1132.00
2019-03-01T06:59:49.914Z,1084.00
2019-03-01T07:00:50.573Z,944.00
2019-03-01T07:01:49.647Z,1100.00
2019-03-01T07:02:49.522Z,1292.00
2019-03-01T07:03:49.386Z,1188.00
2019-03-01T07:04:49.272Z,1000.00
2019-03-01T07:05:49.123Z,1168.00
2019-03-01T07:06:48.995Z,1068.00
2019-03-01T07:07:48.863Z,924.00
2019-03-01T07:08:49.111Z,1020.00
2019-03-01T07:09:48.600Z,1220.00
2019-03-01T07:10:48.468Z,1216.00
2019-03-01T07:11:48.339Z,1276.00
2019-03-01T07:12:48.209Z,1440.00
2019-03-01T07:13:48.078Z,1292.00
2019-03-01T07:14:47.950Z,1172.00
2019-03-01T07:15:47.815Z,1368.00
2019-03-01T07:16:47.693Z,1472.00
2019-03-01T07:17:47.559Z,1516.00
2019-03-01T07:18:47.429Z,1360.00
2019-03-01T07:19:47.299Z,1248.00
2019-03-01T07:20:47.164Z,1336.00
2019-03-01T07:21:47.033Z,1308.00
2019-03-01T07:22:46.908Z,1260.00
2019-03-01T07:23:46.774Z,1388.00
2019-03-01T07:24:46.642Z,1876.00
2019-03-01T07:25:46.513Z,2164.00
2019-03-01T07:26:46.384Z,2152.00
2019-03-01T07:27:46.250Z,2100.00
2019-03-01T07:28:46.118Z,1920.00
2019-03-01T07:29:45.989Z,1920.00
2019-03-01T07:30:45.858Z,2004.00
2019-03-01T07:31:45.731Z,1912.00
2019-03-01T07:32:45.600Z,1964.00
2019-03-01T07:33:45.467Z,1804.00
2019-03-01T07:34:45.338Z,1912.00
2019-03-01T07:35:46.357Z,2196.00
2019-03-01T07:36:45.077Z,2292.00
2019-03-01T07:37:45.133Z,2032.00
2019-03-01T07:38:44.817Z,2036.00
2019-03-01T07:39:44.687Z,2280.00
2019-03-01T07:40:44.556Z,2404.00
2019-03-01T07:41:44.425Z,2388.00
2019-03-01T07:42:44.295Z,2444.00
2019-03-01T07:43:44.163Z,2660.00
2019-03-01T07:44:44.035Z,2896.00
2019-03-01T07:45:43.903Z,2324.00
2019-03-01T07:46:52.673Z,1748.00
2019-03-01T07:47:43.646Z,2236.00
2019-03-01T07:48:43.516Z,1536.00
2019-03-01T07:49:43.388Z,2576.00
2019-03-01T07:50:43.252Z,2716.00
2019-03-01T07:51:43.124Z,2004.00
2019-03-01T07:52:42.993Z,2892.00
2019-03-01T07:53:42.863Z,2796.00
2019-03-01T07:54:42.784Z,2720.00
2019-03-01T07:55:44.011Z,2776.00
2019-03-01T07:56:42.474Z,3000.00
2019-03-01T07:57:42.348Z,3412.00
2019-03-01T07:58:42.218Z,3980.00
2019-03-01T07:59:42.138Z,4368.00
2019-03-01T08:00:41.977Z,4644.00
2019-03-01T08:01:41.827Z,5168.00
2019-03-01T08:02:41.702Z,5372.00
2019-03-01T08:03:41.571Z,5644.00
2019-03-01T08:04:41.519Z,5312.00
2019-03-01T08:05:41.315Z,5324.00
2019-03-01T08:06:41.194Z,5016.00
2019-03-01T08:07:41.067Z,5148.00
2019-03-01T08:08:40.931Z,5452.00
2019-03-01T08:09:41.358Z,5036.00
2019-03-01T08:10:40.673Z,4540.00
2019-03-01T08:11:40.546Z,4228.00
2019-03-01T08:12:42.568Z,3892.00
2019-03-01T08:13:40.292Z,3912.00
2019-03-01T08:14:40.169Z,3780.00
2019-03-01T08:15:40.787Z,3636.00
2019-03-01T08:16:39.906Z,3428.00
2019-03-01T08:17:39.779Z,3204.00
2019-03-01T08:18:40.256Z,3044.00
2019-03-01T08:19:39.520Z,2920.00
2019-03-01T08:20:39.398Z,2864.00
2019-03-01T08:21:42.808Z,2828.00
2019-03-01T08:22:48.144Z,2860.00
2019-03-01T08:23:39.008Z,2920.00
2019-03-01T08:24:39.076Z,3020.00
2019-03-01T08:25:38.754Z,3104.00
2019-03-01T08:26:38.625Z,3172.00
2019-03-01T08:27:41.974Z,3216.00
2019-03-01T08:28:38.369Z,3220.00
2019-03-01T08:29:40.394Z,3164.00
2019-03-01T08:30:38.112Z,3108.00
2019-03-01T08:31:37.983Z,3012.00
2019-03-01T08:32:37.855Z,2880.00
2019-03-01T08:33:42.442Z,2708.00
2019-03-01T08:34:37.601Z,2616.00
2019-03-01T08:35:37.471Z,2632.00
2019-03-01T08:36:38.680Z,2696.00
2019-03-01T08:37:37.216Z,2764.00
2019-03-01T08:38:37.091Z,2832.00
2019-03-01T08:39:39.769Z,2924.00
2019-03-01T08:40:36.827Z,2944.00
2019-03-01T08:41:36.712Z,2920.00
2019-03-01T08:42:37.368Z,2908.00
2019-03-01T08:43:36.458Z,2864.00
2019-03-01T08:44:36.378Z,2824.00
2019-03-01T08:45:36.187Z,2668.00
2019-03-01T08:46:36.087Z,2456.00
2019-03-01T08:47:35.928Z,2308.00
2019-03-01T08:48:35.801Z,2304.00
2019-03-01T08:49:35.680Z,2376.00
2019-03-01T08:50:35.542Z,2524.00
2019-03-01T08:51:35.413Z,2688.00
2019-03-01T08:52:37.205Z,2808.00
2019-03-01T08:53:35.164Z,2880.00
2019-03-01T08:54:35.075Z,2888.00
2019-03-01T08:55:35.559Z,2884.00
2019-03-01T08:56:34.772Z,2968.00
2019-03-01T08:57:43.765Z,3068.00
2019-03-01T08:58:37.736Z,3248.00
2019-03-01T08:59:34.386Z,3492.00
2019-03-01T09:00:34.264Z,3764.00
2019-03-01T09:01:34.130Z,3988.00
2019-03-01T09:02:33.998Z,4100.00
2019-03-01T09:03:33.874Z,4148.00
2019-03-01T09:04:37.772Z,3972.00
2019-03-01T09:05:33.630Z,3696.00
2019-03-01T09:06:33.487Z,3604.00
2019-03-01T09:07:33.355Z,3500.00
2019-03-01T09:08:33.229Z,3392.00
2019-03-01T09:09:33.099Z,3332.00
2019-03-01T09:10:33.695Z,3276.00
2019-03-01T09:11:32.848Z,3128.00
2019-03-01T09:12:32.790Z,2880.00
2019-03-01T09:13:32.585Z,2664.00
2019-03-01T09:14:32.458Z,2580.00
2019-03-01T09:15:32.329Z,2596.00
2019-03-01T09:16:32.200Z,2724.00
2019-03-01T09:17:32.073Z,2972.00
2019-03-01T09:18:33.875Z,3264.00
2019-03-01T09:19:31.865Z,3404.00
2019-03-01T09:20:32.470Z,3416.00
2019-03-01T09:21:31.562Z,3404.00
2019-03-01T09:22:33.659Z,3400.00
2019-03-01T09:23:31.308Z,3396.00
2019-03-01T09:24:31.173Z,3404.00
2019-03-01T09:25:31.042Z,3416.00
2019-03-01T09:26:30.921Z,3424.00
2019-03-01T09:27:31.091Z,3440.00
2019-03-01T09:28:32.759Z,3488.00
2019-03-01T09:29:30.584Z,3588.00
2019-03-01T09:30:30.398Z,3716.00
2019-03-01T09:31:30.268Z,3864.00
2019-03-01T09:32:30.401Z,4020.00
2019-03-01T09:33:30.008Z,4168.00
2019-03-01T09:34:32.247Z,4256.00
2019-03-01T09:35:29.998Z,4292.00
2019-03-01T09:36:29.618Z,4260.00
2019-03-01T09:37:29.705Z,4172.00
2019-03-01T09:38:29.360Z,4060.00
2019-03-01T09:39:29.230Z,3936.00
2019-03-01T09:40:29.725Z,3808.00
2019-03-01T09:41:28.973Z,3680.00
2019-03-01T09:42:28.844Z,3624.00
2019-03-01T09:43:28.712Z,3628.00
2019-03-01T09:44:28.589Z,3624.00
2019-03-01T09:45:35.883Z,3560.00
2019-03-01T09:46:28.361Z,3452.00
2019-03-01T09:47:28.195Z,3380.00
2019-03-01T09:48:28.067Z,3368.00
2019-03-01T09:49:27.938Z,3404.00
2019-03-01T09:50:27.809Z,3448.00
2019-03-01T09:51:27.677Z,3464.00
2019-03-01T09:52:27.549Z,3468.00
2019-03-01T09:53:30.600Z,3476.00
2019-03-01T09:54:27.313Z,3536.00
2019-03-01T09:55:28.755Z,3620.00
2019-03-01T09:56:27.033Z,3712.00
2019-03-01T09:57:26.904Z,3800.00
2019-03-01T09:58:26.774Z,3848.00
2019-03-01T09:59:28.273Z,3856.00
2019-03-01T10:00:28.258Z,3856.00
2019-03-01T10:01:26.395Z,3884.00
2019-03-01T10:02:26.257Z,3940.00
2019-03-01T10:03:26.127Z,4016.00
2019-03-01T10:04:25.999Z,4108.00
2019-03-01T10:05:25.868Z,4212.00
2019-03-01T10:06:25.747Z,4276.00
2019-03-01T10:07:25.610Z,4320.00
2019-03-01T10:08:25.483Z,4372.00
2019-03-01T10:09:25.359Z,4464.00
2019-03-01T10:10:25.232Z,4584.00
2019-03-01T10:11:25.094Z,4700.00
2019-03-01T10:12:24.966Z,4776.00
2019-03-01T10:13:24.836Z,4824.00
2019-03-01T10:14:24.706Z,4844.00
2019-03-01T10:15:24.581Z,4860.00
2019-03-01T10:16:24.445Z,4852.00
2019-03-01T10:17:24.318Z,4760.00
2019-03-01T10:18:24.192Z,4592.00
2019-03-01T10:19:24.060Z,4464.00
2019-03-01T10:20:25.979Z,4400.00
2019-03-01T10:21:23.803Z,4364.00
2019-03-01T10:22:23.673Z,4280.00
2019-03-01T10:23:23.548Z,4204.00
2019-03-01T10:24:23.415Z,4164.00
2019-03-01T10:25:25.261Z,4184.00
2019-03-01T10:26:23.168Z,4312.00
2019-03-01T10:27:24.774Z,4488.00
2019-03-01T10:28:22.971Z,4656.00
2019-03-01T10:29:22.821Z,4756.00
2019-03-01T10:30:22.644Z,4808.00
2019-03-01T10:31:22.518Z,4868.00
2019-03-01T10:32:23.193Z,4908.00
2019-03-01T10:33:22.259Z,4852.00
2019-03-01T10:34:22.128Z,4752.00
2019-03-01T10:35:22.017Z,4580.00
2019-03-01T10:36:21.903Z,4372.00
2019-03-01T10:37:21.741Z,4196.00
2019-03-01T10:38:21.635Z,4168.00
2019-03-01T10:39:21.489Z,4216.00
2019-03-01T10:40:21.356Z,4288.00
2019-03-01T10:41:21.241Z,4400.00
2019-03-01T10:42:21.100Z,4520.00
2019-03-01T10:43:20.975Z,4532.00
2019-03-01T10:44:20.841Z,4456.00
2019-03-01T10:45:20.721Z,4412.00
2019-03-01T10:46:20.585Z,4496.00
2019-03-01T10:47:20.455Z,4620.00
2019-03-01T10:48:20.328Z,4740.00
2019-03-01T10:49:20.199Z,4848.00
2019-03-01T10:50:20.070Z,4932.00
2019-03-01T10:51:19.947Z,5008.00
2019-03-01T10:52:19.815Z,5016.00
2019-03-01T10:53:19.687Z,4952.00
2019-03-01T10:54:19.554Z,5020.00
2019-03-01T10:55:19.432Z,5240.00
2019-03-01T10:56:19.297Z,5456.00
2019-03-01T10:57:19.169Z,5544.00
2019-03-01T10:58:19.042Z,5524.00
2019-03-01T10:59:18.911Z,5500.00
2019-03-01T11:00:18.783Z,5568.00
2019-03-01T11:01:19.211Z,5676.00
2019-03-01T11:02:18.527Z,5672.00
2019-03-01T11:03:18.398Z,5540.00
2019-03-01T11:04:18.272Z,5120.00
2019-03-01T11:05:18.141Z,4644.00
2019-03-01T11:06:18.012Z,4432.00
2019-03-01T11:07:17.885Z,4312.00
2019-03-01T11:08:17.754Z,4264.00
2019-03-01T11:09:17.642Z,4352.00
2019-03-01T11:10:17.497Z,4364.00
2019-03-01T11:11:17.542Z,4344.00
2019-03-01T11:12:17.263Z,4212.00
2019-03-01T11:13:17.111Z,4004.00
2019-03-01T11:14:16.982Z,3724.00
2019-03-01T11:15:16.861Z,3492.00
2019-03-01T11:16:16.726Z,3280.00
2019-03-01T11:17:16.596Z,3100.00
2019-03-01T11:18:18.273Z,3032.00
2019-03-01T11:19:16.340Z,3128.00
2019-03-01T11:20:16.215Z,3276.00
2019-03-01T11:21:16.081Z,3336.00
2019-03-01T11:22:15.954Z,3440.00
2019-03-01T11:23:15.825Z,3680.00
2019-03-01T11:24:15.692Z,3956.00
2019-03-01T11:25:15.564Z,4276.00
2019-03-01T11:26:15.440Z,4532.00
2019-03-01T11:27:15.304Z,4640.00
2019-03-01T11:28:15.174Z,4668.00
2019-03-01T11:29:15.045Z,4728.00
2019-03-01T11:30:15.215Z,4808.00
2019-03-01T11:31:14.788Z,4888.00
2019-03-01T11:32:14.706Z,5012.00
2019-03-01T11:33:14.530Z,5100.00
2019-03-01T11:34:14.399Z,5124.00
2019-03-01T11:35:14.293Z,4972.00
2019-03-01T11:36:14.141Z,4796.00
2019-03-01T11:37:14.010Z,4684.00
2019-03-01T11:38:13.887Z,4264.00
2019-03-01T11:39:13.749Z,3796.00
2019-03-01T11:40:13.621Z,3544.00
2019-03-01T11:41:13.493Z,3576.00
2019-03-01T11:42:13.362Z,3684.00
2019-03-01T11:43:13.236Z,3788.00
2019-03-01T11:44:13.101Z,3952.00
2019-03-01T11:45:12.972Z,4008.00
2019-03-01T11:46:12.844Z,4100.00
2019-03-01T11:47:12.713Z,4276.00
2019-03-01T11:48:12.587Z,4592.00
2019-03-01T11:49:12.456Z,4792.00
2019-03-01T11:50:12.324Z,4816.00
2019-03-01T11:51:12.196Z,4856.00
2019-03-01T11:52:12.069Z,4952.00
2019-03-01T11:53:11.940Z,5216.00
2019-03-01T11:54:11.813Z,5472.00
2019-03-01T11:55:11.680Z,5480.00
2019-03-01T11:56:11.549Z,5496.00
2019-03-01T11:57:11.425Z,5532.00
2019-03-01T11:58:11.290Z,5488.00
2019-03-01T11:59:11.218Z,5104.00
2019-03-01T12:00:11.030Z,4716.00
2019-03-01T12:01:17.055Z,4516.00
2019-03-01T12:02:10.770Z,4428.00
2019-03-01T12:03:10.641Z,4444.00
2019-03-01T12:04:10.535Z,4068.00
2019-03-01T12:05:10.381Z,3532.00
2019-03-01T12:06:10.259Z,3384.00
2019-03-01T12:07:10.127Z,3248.00
2019-03-01T12:08:09.997Z,3060.00
2019-03-01T12:09:09.865Z,2824.00
2019-03-01T12:10:09.737Z,2808.00
2019-03-01T12:11:09.605Z,2936.00
2019-03-01T12:12:09.475Z,2972.00
2019-03-01T12:13:09.351Z,2952.00
2019-03-01T12:14:09.219Z,2976.00
2019-03-01T12:15:09.086Z,3000.00
2019-03-01T12:16:08.957Z,3240.00
2019-03-01T12:17:08.827Z,3524.00
2019-03-01T12:18:08.697Z,3756.00
2019-03-01T12:19:08.567Z,3916.00
2019-03-01T12:20:08.437Z,3688.00
2019-03-01T12:21:08.308Z,3072.00
2019-03-01T12:22:16.720Z,2608.00
2019-03-01T12:23:08.048Z,2364.00
2019-03-01T12:24:07.917Z,2224.00
2019-03-01T12:25:07.793Z,2200.00
2019-03-01T12:26:07.657Z,2260.00
2019-03-01T12:27:07.552Z,2204.00
2019-03-01T12:28:07.401Z,2112.00
2019-03-01T12:29:07.269Z,2080.00
2019-03-01T12:30:07.140Z,2120.00
2019-03-01T12:31:07.007Z,2208.00
2019-03-01T12:32:06.896Z,2256.00
2019-03-01T12:33:06.750Z,2100.00
2019-03-01T12:34:06.619Z,2016.00
2019-03-01T12:35:06.520Z,2048.00
2019-03-01T12:36:06.359Z,2044.00
2019-03-01T12:37:06.229Z,2008.00
2019-03-01T12:38:06.097Z,1948.00
2019-03-01T12:39:05.967Z,1908.00